Time;durP1;ratioP1;P1;durP2;ratioP2;P2;SDS_P1;SDS_P2;PMS_P1;PMS_P2;Temp;Humidity;BMP_temperature;BMP_pressure;BME280_temperature;BME280_humidity;BME280_pressure;Samples;Min_cycle;Max_cycle;Signal;HPM_P1;HPM_P2
2021/03/30 00:01:04;;;;;;;19.05;5.75;;;21.70;99.40;;;;;;5070153;28;20058;-69
2021/03/30 00:03:31;;;;;;;27.55;7.00;;;21.80;99.60;;;;;;5071559;28;20094;-68
2021/03/30 00:05:58;;;;;;;33.22;6.45;;;21.70;99.90;;;;;;5071236;28;20028;-67
2021/03/30 00:08:24;;;;;;;20.52;5.18;;;21.80;98.90;;;;;;5072097;28;20093;-68
2021/03/30 00:10:51;;;;;;;26.45;6.38;;;21.70;99.10;;;;;;5072395;28;20028;-68
2021/03/30 00:13:18;;;;;;;28.33;6.28;;;21.60;99.90;;;;;;5071095;28;20028;-70
2021/03/30 00:15:44;;;;;;;31.60;7.97;;;21.40;99.90;;;;;;5072188;28;20082;-68
2021/03/30 00:18:11;;;;;;;28.35;7.00;;;21.00;99.90;;;;;;5070852;28;20099;-70
2021/03/30 00:20:38;;;;;;;27.42;7.22;;;20.50;99.90;;;;;;5069899;28;20158;-68
2021/03/30 00:23:04;;;;;;;32.17;7.18;;;20.20;99.90;;;;;;5056956;28;20028;-69
2021/03/30 00:25:31;;;;;;;32.30;6.88;;;20.10;99.90;;;;;;5071137;28;20027;-67
2021/03/30 00:27:58;;;;;;;32.20;7.38;;;20.00;99.90;;;;;;5072284;28;20660;-69
2021/03/30 00:30:25;;;;;;;32.58;6.93;;;20.10;99.90;;;;;;5070394;28;20040;-68
2021/03/30 00:32:51;;;;;;;33.75;7.60;;;20.20;99.90;;;;;;5069665;28;20508;-68
2021/03/30 00:35:18;;;;;;;32.13;7.68;;;20.30;99.90;;;;;;5071292;28;20039;-69
2021/03/30 00:37:44;;;;;;;29.98;9.02;;;20.20;99.90;;;;;;5072888;28;20488;-68
2021/03/30 00:40:12;;;;;;;29.20;7.50;;;19.90;99.90;;;;;;5071454;28;20060;-67
2021/03/30 00:42:39;;;;;;;37.72;9.32;;;19.50;99.90;;;;;;5071848;28;20028;-68
2021/03/30 00:45:07;;;;;;;33.17;7.97;;;19.30;99.90;;;;;;5071821;28;20047;-68
2021/03/30 00:47:36;;;;;;;29.33;9.05;;;19.10;99.90;;;;;;5074935;28;20115;-67
2021/03/30 00:50:03;;;;;;;33.35;8.93;;;18.90;99.90;;;;;;5075451;28;20708;-67
2021/03/30 00:52:30;;;;;;;41.60;10.60;;;18.70;99.90;;;;;;5055186;28;20118;-71
2021/03/30 00:54:57;;;;;;;39.72;8.85;;;18.70;99.90;;;;;;5073034;28;20040;-67
2021/03/30 00:57:23;;;;;;;39.47;8.02;;;18.70;99.90;;;;;;5074930;28;20101;-69
2021/03/30 00:59:50;;;;;;;29.95;8.23;;;18.60;99.90;;;;;;5074475;28;20048;-66
2021/03/30 01:02:17;;;;;;;40.35;9.77;;;18.30;99.90;;;;;;5075552;28;20024;-67
2021/03/30 01:04:43;;;;;;;35.28;9.55;;;17.80;99.90;;;;;;5075262;28;20028;-67
2021/03/30 01:07:10;;;;;;;38.72;8.63;;;17.80;99.90;;;;;;5075216;28;20582;-67
2021/03/30 01:09:58;;;;;;;32.25;8.00;;;17.80;99.90;;;;;;5074494;28;20047;-66
2021/03/30 01:12:33;;;;;;;39.97;10.15;;;17.60;99.90;;;;;;5073983;28;20071;-69
2021/03/30 01:15:32;;;;;;;36.92;9.05;;;17.40;99.90;;;;;;5073123;28;20574;-66
2021/03/30 01:18:28;;;;;;;38.38;9.32;;;17.10;99.90;;;;;;5071013;28;20204;-70
2021/03/30 01:21:00;;;;;;;31.20;7.93;;;16.90;99.90;;;;;;5073322;28;20033;-65
2021/03/30 01:23:27;;;;;;;33.15;9.32;;;17.00;99.90;;;;;;5074261;28;20203;-65
2021/03/30 01:26:01;;;;;;;35.28;8.90;;;16.90;99.90;;;;;;5073289;28;20529;-67
2021/03/30 01:28:47;;;;;;;36.65;8.40;;;16.70;99.90;;;;;;5074677;28;20028;-66
2021/03/30 01:31:16;;;;;;;28.08;8.27;;;16.60;99.90;;;;;;5074096;28;20098;-67
2021/03/30 01:33:45;;;;;;;31.27;8.77;;;16.60;99.90;;;;;;5073792;28;20085;-67
2021/03/30 01:36:13;;;;;;;26.27;7.78;;;16.50;99.90;;;;;;5073587;28;20052;-67
2021/03/30 01:38:42;;;;;;;27.83;7.82;;;16.50;99.90;;;;;;5074392;28;20035;-66
2021/03/30 01:41:09;;;;;;;;;;;16.60;99.90;;;;;;5070164;28;20032;-67
2021/03/30 01:43:35;;;;;;;26.48;7.53;;;16.50;99.90;;;;;;5073198;28;20590;-67
2021/03/30 01:46:02;;;;;;;30.50;8.45;;;16.60;99.90;;;;;;5072795;28;20032;-68
2021/03/30 01:48:30;;;;;;;24.60;7.22;;;16.50;99.90;;;;;;5074407;28;21566;-66
2021/03/30 01:50:57;;;;;;;26.25;7.53;;;16.50;99.90;;;;;;5069774;28;20182;-66
2021/03/30 01:53:26;;;;;;;39.08;8.82;;;16.50;99.90;;;;;;5073499;28;20043;-67
2021/03/30 01:55:56;;;;;;;29.83;7.63;;;16.40;99.90;;;;;;5073719;28;20027;-66
2021/03/30 01:58:25;;;;;;;25.33;6.82;;;16.40;99.90;;;;;;5072658;28;20042;-67
2021/03/30 02:00:54;;;;;;;20.63;6.78;;;16.30;99.90;;;;;;5072179;28;20452;-65
2021/03/30 02:03:21;;;;;;;24.60;7.45;;;16.30;99.90;;;;;;5072440;28;20423;-66
2021/03/30 02:05:48;;;;;;;27.42;7.15;;;16.20;99.90;;;;;;5054738;28;20045;-66
2021/03/30 02:08:18;;;;;;;29.17;7.82;;;16.20;99.90;;;;;;5075172;28;20031;-65
2021/03/30 02:10:48;;;;;;;24.80;7.53;;;16.00;99.90;;;;;;5073888;28;21894;-68
2021/03/30 02:16:14;;;;;;;25.55;7.20;;;16.00;99.90;;;;;;5074011;28;20044;-66
2021/03/30 02:18:54;;;;;;;;;;;15.90;99.90;;;;;;5055197;28;20036;-65
2021/03/30 02:21:27;;;;;;;27.45;7.38;;;15.90;99.90;;;;;;5073707;28;20343;-66
2021/03/30 02:23:56;;;;;;;19.33;7.15;;;15.80;99.90;;;;;;5072778;28;20035;-66
2021/03/30 02:26:24;;;;;;;32.20;8.90;;;15.70;99.90;;;;;;5072999;28;20032;-69
2021/03/30 02:28:56;;;;;;;31.40;9.40;;;15.50;99.90;;;;;;5073875;28;20405;-67
2021/03/30 02:31:33;;;;;;;22.73;7.45;;;15.60;99.90;;;;;;5073120;28;20101;-71
2021/03/30 02:34:04;;;;;;;25.02;7.47;;;15.70;99.90;;;;;;5073292;28;20080;-66
2021/03/30 02:36:31;;;;;;;24.50;8.27;;;15.50;99.90;;;;;;5071554;28;20020;-67
2021/03/30 02:39:01;;;;;;;27.45;7.82;;;15.40;99.90;;;;;;5072031;28;20106;-66
2021/03/30 02:41:30;;;;;;;29.45;9.02;;;15.40;99.90;;;;;;5071650;28;20111;-67
2021/03/30 02:43:58;;;;;;;38.30;10.68;;;15.30;99.90;;;;;;5053805;28;20024;-65
2021/03/30 02:46:26;;;;;;;30.13;8.95;;;15.30;99.90;;;;;;5072187;28;20094;-67
2021/03/30 02:48:54;;;;;;;40.38;8.65;;;15.10;99.90;;;;;;5073890;28;20032;-66
2021/03/30 02:51:24;;;;;;;35.05;9.05;;;15.20;99.90;;;;;;5071054;28;20028;-66
2021/03/30 02:53:55;;;;;;;40.47;10.13;;;15.20;99.90;;;;;;5072473;28;20032;-70
2021/03/30 02:56:23;;;;;;;28.63;9.13;;;15.20;99.90;;;;;;5072477;28;20160;-69
2021/03/30 02:58:53;;;;;;;30.88;9.35;;;15.30;99.90;;;;;;5072133;28;20111;-66
2021/03/30 03:01:22;;;;;;;30.17;9.68;;;15.20;99.90;;;;;;5071338;28;20016;-66
2021/03/30 03:03:51;;;;;;;34.58;9.82;;;15.10;99.90;;;;;;5074001;28;20028;-67
2021/03/30 03:06:18;;;;;;;29.95;9.32;;;15.00;99.90;;;;;;5054844;28;20087;-66
2021/03/30 03:08:47;;;;;;;35.60;10.73;;;15.00;99.90;;;;;;5071190;28;20065;-67
2021/03/30 03:11:16;;;;;;;43.85;10.80;;;15.00;99.90;;;;;;5072544;28;20430;-62
2021/03/30 03:13:45;;;;;;;31.05;10.00;;;14.90;99.90;;;;;;5071367;28;20583;-64
2021/03/30 03:16:12;;;;;;;43.97;11.90;;;14.90;99.90;;;;;;5071539;28;20028;-63
2021/03/30 03:18:41;;;;;;;30.95;9.82;;;14.80;99.90;;;;;;5071438;28;20020;-63
2021/03/30 03:21:08;;;;;;;;;;;14.70;99.90;;;;;;5073208;28;20051;-64
2021/03/30 03:23:38;;;;;;;36.03;9.63;;;14.60;99.90;;;;;;5072024;28;19911;-63
2021/03/30 03:26:13;;;;;;;43.97;12.48;;;14.60;99.90;;;;;;5071759;28;20032;-64
2021/03/30 03:28:44;;;;;;;35.08;11.48;;;14.60;99.90;;;;;;5072014;28;20036;-64
2021/03/30 03:31:12;;;;;;;52.22;11.55;;;14.40;99.90;;;;;;5071029;28;20518;-64
2021/03/30 03:33:38;;;;;;;32.50;10.02;;;14.40;99.90;;;;;;5071382;28;20108;-64
2021/03/30 03:36:12;;;;;;;34.42;9.95;;;14.40;99.90;;;;;;5071548;28;20077;-64
2021/03/30 03:38:41;;;;;;;34.88;10.65;;;14.50;99.90;;;;;;5071338;28;20081;-64
2021/03/30 03:41:11;;;;;;;36.85;10.10;;;14.50;99.90;;;;;;5068758;28;20115;-64
2021/03/30 03:43:38;;;;;;;37.30;10.20;;;14.40;99.90;;;;;;5071100;28;20032;-65
2021/03/30 03:46:04;;;;;;;41.67;10.38;;;14.30;99.90;;;;;;5070492;28;20031;-64
2021/03/30 03:48:31;;;;;;;33.03;10.63;;;14.30;99.90;;;;;;5070137;28;20024;-64
2021/03/30 03:51:04;;;;;;;40.83;11.93;;;14.20;99.90;;;;;;5071665;28;20028;-64
2021/03/30 03:53:34;;;;;;;39.63;12.30;;;14.30;99.90;;;;;;5072300;28;20024;-64
2021/03/30 03:56:03;;;;;;;38.05;11.60;;;14.40;99.90;;;;;;5070604;28;20117;-64
2021/03/30 03:58:36;;;;;;;47.33;12.13;;;14.50;99.90;;;;;;5071070;28;20499;-65
2021/03/30 04:01:05;;;;;;;41.88;12.15;;;14.40;99.90;;;;;;5068550;28;20559;-64
2021/03/30 04:03:43;;;;;;;45.40;14.43;;;14.40;99.90;;;;;;5069237;28;20479;-63
2021/03/30 04:06:16;;;;;;;36.17;11.20;;;14.40;99.90;;;;;;5070099;28;20074;-65
2021/03/30 04:08:48;;;;;;;45.10;14.07;;;14.30;99.90;;;;;;5070947;28;20135;-65
2021/03/30 04:11:16;;;;;;;34.60;11.18;;;14.40;99.90;;;;;;5068728;28;20513;-64
2021/03/30 04:13:47;;;;;;;38.23;10.60;;;14.40;99.90;;;;;;5071772;28;20101;-65
2021/03/30 04:16:14;;;;;;;34.95;9.57;;;14.60;99.90;;;;;;5069788;28;20262;-65
2021/03/30 04:18:41;;;;;;;38.00;10.43;;;14.70;99.90;;;;;;5074893;28;20518;-67
2021/03/30 04:21:31;;;;;;;46.38;12.02;;;14.70;99.90;;;;;;5074543;28;20493;-63
2021/03/30 04:23:59;;;;;;;41.08;12.65;;;14.70;99.90;;;;;;5075899;28;20141;-64
2021/03/30 04:26:28;;;;;;;35.40;10.15;;;14.80;99.90;;;;;;5075234;28;20051;-65
2021/03/30 04:28:54;;;;;;;37.33;11.45;;;14.90;99.90;;;;;;5073916;28;20044;-64
2021/03/30 04:31:21;;;;;;;39.15;11.18;;;14.80;99.90;;;;;;5074389;28;20032;-63
2021/03/30 04:33:47;;;;;;;41.08;13.57;;;14.90;99.90;;;;;;5073533;28;20104;-63
2021/03/30 04:36:14;;;;;;;50.47;13.65;;;14.80;99.90;;;;;;5071758;28;20028;-62
2021/03/30 04:38:41;;;;;;;42.58;15.25;;;14.60;99.90;;;;;;5073947;28;20032;-63
2021/03/30 04:41:07;;;;;;;35.35;13.50;;;14.60;99.90;;;;;;5074984;28;20164;-61
2021/03/30 04:43:34;;;;;;;38.13;14.35;;;14.40;99.90;;;;;;5074319;28;20107;-61
2021/03/30 04:46:01;;;;;;;47.42;17.33;;;14.60;99.90;;;;;;5073899;28;20098;-63
2021/03/30 04:48:27;;;;;;;41.15;17.23;;;14.60;99.90;;;;;;5073613;28;20024;-61
2021/03/30 04:50:55;;;;;;;50.00;19.35;;;14.40;99.90;;;;;;5072980;28;20460;-59
2021/03/30 04:53:21;;;;;;;47.95;19.73;;;14.20;99.90;;;;;;5054311;28;20031;-61
2021/03/30 04:55:48;;;;;;;49.65;19.05;;;14.30;99.90;;;;;;5072891;28;20518;-60
2021/03/30 04:58:14;;;;;;;55.58;23.55;;;14.30;99.90;;;;;;5073380;28;20451;-62
2021/03/30 05:00:41;;;;;;;50.38;20.25;;;14.40;99.90;;;;;;5073253;28;20030;-61
2021/03/30 05:03:07;;;;;;;44.90;19.25;;;14.30;99.90;;;;;;5073010;28;20043;-62
2021/03/30 05:05:34;;;;;;;48.25;20.27;;;14.20;99.90;;;;;;5073887;28;20100;-61
2021/03/30 05:08:00;;;;;;;41.50;18.13;;;14.20;99.90;;;;;;5073858;28;20016;-61
2021/03/30 05:10:27;;;;;;;49.60;18.27;;;14.00;99.90;;;;;;5074567;28;20032;-60
2021/03/30 05:12:54;;;;;;;43.22;16.70;;;14.00;99.90;;;;;;5074889;28;20024;-62
2021/03/30 05:15:20;;;;;;;44.78;17.92;;;13.90;99.90;;;;;;5073880;28;20419;-61
2021/03/30 05:17:47;;;;;;;36.80;15.63;;;13.90;99.90;;;;;;5073333;28;20032;-62
2021/03/30 05:20:14;;;;;;;45.17;17.45;;;14.00;99.90;;;;;;5073226;28;20024;-61
2021/03/30 05:22:40;;;;;;;40.25;17.15;;;14.10;99.90;;;;;;5072853;28;20032;-61
2021/03/30 05:25:08;;;;;;;42.00;16.05;;;14.10;99.90;;;;;;5071719;28;20078;-60
2021/03/30 05:27:36;;;;;;;39.40;15.43;;;14.00;99.90;;;;;;5072245;28;20081;-61
2021/03/30 05:30:05;;;;;;;40.42;16.13;;;13.90;99.90;;;;;;5073218;28;20036;-61
2021/03/30 05:32:31;;;;;;;46.53;16.73;;;14.00;99.90;;;;;;5054903;28;20407;-60
2021/03/30 05:34:58;;;;;;;44.00;16.85;;;13.90;99.90;;;;;;5058758;28;20036;-62
2021/03/30 05:37:24;;;;;;;41.58;15.57;;;13.90;99.90;;;;;;5071995;28;20780;-61
2021/03/30 05:39:51;;;;;;;37.17;16.33;;;13.70;99.90;;;;;;5072707;28;20032;-61
2021/03/30 05:42:21;;;;;;;58.67;18.40;;;13.80;99.90;;;;;;5072663;28;20024;-61
2021/03/30 05:44:52;;;;;;;35.80;14.57;;;13.80;99.90;;;;;;5073615;28;20024;-60
2021/03/30 05:47:29;;;;;;;54.95;17.75;;;13.90;99.90;;;;;;5070917;28;20040;-60
2021/03/30 05:49:56;;;;;;;53.00;15.30;;;13.80;99.90;;;;;;5070422;28;20036;-60
2021/03/30 05:52:32;;;;;;;38.15;13.45;;;13.70;99.90;;;;;;5072536;28;20044;-60
2021/03/30 05:54:59;;;;;;;42.20;13.80;;;13.70;99.90;;;;;;5072399;28;20042;-60
2021/03/30 05:57:28;;;;;;;37.45;12.95;;;13.60;99.90;;;;;;5072008;28;20169;-59
2021/03/30 05:59:59;;;;;;;;;;;13.50;99.90;;;;;;5073890;28;20103;-60
2021/03/30 06:02:40;;;;;;;35.22;13.18;;;13.40;99.90;;;;;;5072957;28;19912;-59
2021/03/30 06:05:08;;;;;;;31.02;11.25;;;13.40;99.90;;;;;;5073727;28;20507;-60
2021/03/30 06:07:39;;;;;;;36.88;12.40;;;13.40;99.90;;;;;;5073734;28;20517;-60
2021/03/30 06:10:10;;;;;;;32.55;12.18;;;13.20;99.90;;;;;;5073319;28;20039;-60
2021/03/30 06:12:37;;;;;;;36.60;12.60;;;13.30;99.90;;;;;;5072551;28;20039;-59
2021/03/30 06:15:07;;;;;;;37.00;13.27;;;13.20;99.90;;;;;;5072686;28;20035;-61
2021/03/30 06:17:48;;;;;;;28.77;10.55;;;13.20;99.90;;;;;;5074517;28;20391;-60
2021/03/30 06:20:33;;;;;;;34.45;12.70;;;13.30;99.90;;;;;;5073085;28;20039;-60
2021/03/30 06:23:03;;;;;;;43.65;13.20;;;13.10;99.90;;;;;;5072550;28;20680;-60
2021/03/30 06:25:43;;;;;;;37.25;13.23;;;13.10;99.90;;;;;;5072988;28;20020;-60
2021/03/30 06:28:18;;;;;;;36.00;10.85;;;13.10;99.90;;;;;;5072167;28;20028;-61
2021/03/30 06:31:03;;;;;;;36.55;11.95;;;13.10;99.90;;;;;;5071323;28;20082;-60
2021/03/30 06:33:32;;;;;;;39.05;14.93;;;13.10;99.90;;;;;;5073689;28;20028;-60
2021/03/30 06:36:32;;;;;;;38.10;14.73;;;13.00;99.90;;;;;;5073230;28;20531;-60
2021/03/30 06:39:07;;;;;;;36.20;14.75;;;13.10;99.90;;;;;;5072856;28;20053;-60
2021/03/30 06:47:02;;;;;;;43.20;18.40;;;13.10;99.90;;;;;;5073756;28;20110;-61
2021/03/30 06:49:31;;;;;;;62.88;20.52;;;13.10;99.90;;;;;;5073553;28;20032;-60
2021/03/30 06:51:58;;;;;;;62.30;20.98;;;13.20;99.90;;;;;;5071883;28;20143;-60
2021/03/30 06:54:26;;;;;;;49.72;20.48;;;13.20;99.90;;;;;;5071180;28;20161;-60
2021/03/30 06:56:58;;;;;;;50.53;19.85;;;13.20;99.90;;;;;;5071452;28;20012;-61
2021/03/30 06:59:25;;;;;;;54.88;22.58;;;13.10;99.90;;;;;;5053267;28;20031;-60
2021/03/30 07:01:56;;;;;;;48.95;22.63;;;13.20;99.90;;;;;;5072298;28;20593;-61
2021/03/30 07:04:23;;;;;;;48.20;22.73;;;13.30;99.90;;;;;;5072120;28;20153;-60
2021/03/30 07:06:54;;;;;;;53.10;21.40;;;13.30;99.90;;;;;;5072413;28;20108;-60
2021/03/30 07:09:22;;;;;;;51.90;22.63;;;13.30;99.90;;;;;;5070493;28;20028;-60
2021/03/30 07:11:50;;;;;;;59.05;23.05;;;13.30;99.90;;;;;;5071281;28;20086;-60
2021/03/30 07:14:17;;;;;;;47.35;21.40;;;13.40;99.90;;;;;;5052728;28;20048;-60
2021/03/30 07:16:51;;;;;;;44.33;23.17;;;13.50;99.90;;;;;;5071947;28;20024;-60
2021/03/30 07:19:23;;;;;;;44.65;20.70;;;13.50;99.90;;;;;;5058338;28;20922;-60
2021/03/30 07:22:09;;;;;;;48.55;20.42;;;13.60;99.90;;;;;;5072277;28;20505;-60
2021/03/30 07:24:42;;;;;;;54.00;21.15;;;13.50;99.90;;;;;;5074190;28;20123;-60
2021/03/30 07:27:16;;;;;;;47.00;21.17;;;13.50;99.90;;;;;;5070181;28;20031;-60
2021/03/30 07:29:49;;;;;;;48.33;18.67;;;13.50;99.90;;;;;;5073048;28;20071;-61
2021/03/30 07:33:20;;;;;;;49.15;19.58;;;13.50;99.90;;;;;;5071846;28;20040;-62
2021/03/30 07:35:47;;;;;;;52.53;18.95;;;13.50;99.90;;;;;;4980021;28;20054;-59
2021/03/30 07:38:19;;;;;;;55.40;17.88;;;13.40;99.90;;;;;;5070781;28;20107;-60
2021/03/30 07:40:46;;;;;;;45.92;16.80;;;13.60;99.90;;;;;;5072683;28;20081;-60
2021/03/30 07:43:27;;;;;;;48.35;19.17;;;13.70;99.90;;;;;;5073645;28;20568;-60
2021/03/30 07:45:58;;;;;;;59.17;18.15;;;13.70;99.90;;;;;;5070352;28;20157;-62
2021/03/30 07:48:28;;;;;;;41.25;15.52;;;13.80;99.90;;;;;;5071338;28;20494;-60
2021/03/30 07:51:06;;;;;;;44.42;15.48;;;13.80;99.90;;;;;;5072053;28;20028;-60
2021/03/30 07:53:52;;;;;;;34.67;14.80;;;13.50;99.90;;;;;;5076753;28;20030;-59
2021/03/30 07:56:25;;;;;;;46.03;16.63;;;13.60;99.90;;;;;;5076375;28;20123;-60
2021/03/30 07:58:53;;;;;;;38.53;13.80;;;13.60;99.90;;;;;;5076396;28;20047;-60
2021/03/30 08:01:25;;;;;;;50.38;15.60;;;13.60;99.90;;;;;;5076833;28;20388;-60
2021/03/30 08:03:55;;;;;;;44.70;13.10;;;13.70;99.90;;;;;;5068252;28;20039;-59
2021/03/30 08:06:23;;;;;;;48.80;14.43;;;13.50;99.90;;;;;;5076583;28;20028;-60
2021/03/30 08:09:08;;;;;;;39.03;12.63;;;13.40;99.90;;;;;;5062936;28;20550;-61
2021/03/30 08:11:43;;;;;;;43.50;12.48;;;13.50;99.90;;;;;;5076256;28;20111;-60
2021/03/30 08:14:19;;;;;;;47.22;11.93;;;13.40;99.90;;;;;;5075913;28;20032;-60
2021/03/30 08:16:51;;;;;;;36.58;9.40;;;13.40;99.90;;;;;;5075067;28;20035;-60
2021/03/30 08:19:19;;;;;;;33.15;10.80;;;13.50;99.90;;;;;;5068151;28;20064;-60
2021/03/30 08:21:56;;;;;;;33.63;10.63;;;13.40;99.90;;;;;;5075642;28;20060;-60
2021/03/30 08:24:24;;;;;;;29.58;10.10;;;13.50;99.90;;;;;;5074644;28;20135;-60
2021/03/30 08:26:51;;;;;;;33.47;10.50;;;13.50;99.90;;;;;;5074842;28;20074;-60
2021/03/30 08:29:38;;;;;;;37.60;9.52;;;13.70;99.90;;;;;;5051772;28;20049;-60
2021/03/30 08:32:05;;;;;;;37.08;9.63;;;13.70;99.90;;;;;;5038259;28;20542;-59
2021/03/30 08:34:42;;;;;;;38.88;10.45;;;13.70;99.90;;;;;;5038290;28;20855;-59
2021/03/30 08:37:13;;;;;;;50.75;11.10;;;13.50;99.90;;;;;;5039107;28;20037;-59
2021/03/30 08:39:41;;;;;;;33.83;10.02;;;13.50;99.90;;;;;;5040343;28;20044;-60
2021/03/30 08:42:21;;;;;;;44.05;11.35;;;13.60;99.90;;;;;;5037211;28;20396;-59
2021/03/30 08:44:51;;;;;;;37.03;9.50;;;13.70;99.90;;;;;;5035882;28;20115;-60
2021/03/30 08:47:40;;;;;;;39.05;10.27;;;13.70;99.90;;;;;;5037166;28;20029;-59
2021/03/30 08:50:23;;;;;;;28.00;8.50;;;13.70;99.90;;;;;;5037983;28;20029;-60
2021/03/30 08:52:55;;;;;;;37.17;10.18;;;13.80;99.90;;;;;;5036983;28;20084;-61
2021/03/30 08:55:29;;;;;;;31.52;10.07;;;14.00;99.90;;;;;;5038701;28;20048;-60
2021/03/30 08:57:58;;;;;;;34.00;8.80;;;14.10;99.90;;;;;;5039591;28;20098;-60
2021/03/30 09:00:25;;;;;;;31.67;9.90;;;14.10;99.90;;;;;;5039378;28;20116;-60
2021/03/30 09:03:04;;;;;;;44.60;10.18;;;14.10;99.90;;;;;;5042311;28;20062;-60
2021/03/30 09:05:41;;;;;;;31.20;9.65;;;14.00;99.90;;;;;;5039104;28;20543;-60
2021/03/30 09:08:11;;;;;;;39.08;10.20;;;13.80;99.90;;;;;;5038711;28;20061;-60
2021/03/30 09:10:38;;;;;;;32.38;8.82;;;13.70;99.90;;;;;;5038216;28;20025;-59
2021/03/30 09:13:17;;;;;;;31.63;9.93;;;13.80;99.90;;;;;;5037233;28;20033;-60
2021/03/30 09:15:46;;;;;;;38.35;9.80;;;13.70;99.90;;;;;;5037022;28;20042;-60
2021/03/30 09:18:33;;;;;;;;;;;13.70;99.90;;;;;;5038165;28;20446;-60
2021/03/30 09:21:20;;;;;;;34.85;9.43;;;13.80;99.90;;;;;;5038708;28;19912;-61
2021/03/30 09:23:47;;;;;;;44.28;10.77;;;13.80;99.90;;;;;;5036286;28;20031;-60
2021/03/30 09:26:17;;;;;;;36.65;10.18;;;13.80;99.90;;;;;;5036863;28;20021;-59
2021/03/30 09:28:44;;;;;;;44.50;9.75;;;13.80;99.90;;;;;;5042023;28;20113;-60
2021/03/30 09:31:12;;;;;;;34.17;9.30;;;13.90;99.90;;;;;;5055841;28;20087;-60
2021/03/30 09:33:39;;;;;;;35.10;9.95;;;13.90;99.90;;;;;;5055325;28;20054;-59
2021/03/30 09:36:12;;;;;;;42.17;9.07;;;13.80;99.90;;;;;;5074975;28;20798;-60
2021/03/30 09:38:53;;;;;;;36.35;9.68;;;13.90;99.90;;;;;;5075565;28;20025;-60
2021/03/30 09:41:40;;;;;;;34.67;9.75;;;13.90;99.90;;;;;;5054728;28;20111;-60
2021/03/30 09:44:08;;;;;;;30.13;9.02;;;13.80;99.90;;;;;;5072857;28;20024;-60
2021/03/30 09:46:35;;;;;;;42.60;10.68;;;13.90;99.90;;;;;;5073606;28;20024;-60
2021/03/30 09:49:04;;;;;;;38.85;8.80;;;14.00;99.90;;;;;;5073905;28;20032;-59
2021/03/30 09:51:32;;;;;;;33.65;8.98;;;13.90;99.90;;;;;;5075288;28;20740;-59
2021/03/30 09:53:58;;;;;;;42.78;9.93;;;14.00;99.90;;;;;;5073527;28;20110;-59
2021/03/30 09:56:31;;;;;;;41.08;9.98;;;14.10;99.90;;;;;;5074552;28;20043;-59
2021/03/30 09:58:59;;;;;;;48.58;9.15;;;14.10;99.90;;;;;;5075063;28;20594;-59
2021/03/30 10:01:26;;;;;;;40.90;8.90;;;14.10;99.90;;;;;;5074013;28;20032;-59
2021/03/30 10:03:53;;;;;;;37.88;9.32;;;14.00;99.90;;;;;;5074475;28;20517;-58
2021/03/30 10:06:21;;;;;;;32.70;7.85;;;13.90;99.90;;;;;;5072879;28;20048;-59
2021/03/30 10:08:48;;;;;;;41.70;9.45;;;13.90;99.90;;;;;;5075013;28;20510;-59
2021/03/30 10:11:35;;;;;;;56.78;11.25;;;13.80;99.90;;;;;;5071694;28;20506;-59
2021/03/30 10:14:24;;;;;;;53.53;9.82;;;13.80;99.90;;;;;;5073652;28;20036;-59
2021/03/30 10:16:55;;;;;;;47.90;11.00;;;13.80;99.90;;;;;;5074307;28;20534;-59
2021/03/30 10:19:22;;;;;;;45.78;10.00;;;13.70;99.90;;;;;;5072184;28;20130;-59
2021/03/30 10:21:54;;;;;;;39.70;8.73;;;13.60;99.90;;;;;;5072822;28;20028;-59
2021/03/30 10:24:21;;;;;;;48.55;10.55;;;13.70;99.90;;;;;;5073076;28;20105;-60
2021/03/30 10:27:01;;;;;;;47.15;11.07;;;13.70;99.90;;;;;;5073361;28;20100;-59
2021/03/30 10:29:33;;;;;;;38.47;9.10;;;13.70;99.90;;;;;;5072650;28;20048;-60
2021/03/30 10:32:08;;;;;;;47.85;11.55;;;13.80;99.90;;;;;;5073074;28;20078;-59
2021/03/30 10:34:35;;;;;;;32.25;8.40;;;13.70;99.90;;;;;;5074733;28;20040;-59
2021/03/30 10:37:11;;;;;;;39.75;9.90;;;13.80;99.90;;;;;;5072393;28;20038;-59
2021/03/30 10:39:42;;;;;;;45.78;11.73;;;13.60;99.90;;;;;;5053654;28;20028;-60
2021/03/30 10:42:14;;;;;;;47.17;11.00;;;13.60;99.90;;;;;;5071948;28;20108;-60
2021/03/30 10:44:44;;;;;;;45.88;9.80;;;13.60;99.90;;;;;;5073718;28;20036;-60
2021/03/30 10:47:20;;;;;;;52.20;12.25;;;13.50;99.90;;;;;;5068569;28;20035;-59
2021/03/30 10:49:49;;;;;;;31.35;9.18;;;13.60;99.90;;;;;;5073556;28;20125;-60
2021/03/30 10:52:23;;;;;;;41.42;8.85;;;13.80;99.90;;;;;;5060283;28;20119;-60
2021/03/30 10:54:52;;;;;;;39.28;9.63;;;13.80;99.90;;;;;;5072579;28;20036;-60
2021/03/30 10:57:21;;;;;;;41.40;10.05;;;13.90;99.90;;;;;;5072096;28;20193;-60
2021/03/30 10:59:48;;;;;;;;;;;13.70;99.90;;;;;;5073416;28;20159;-60
2021/03/30 11:02:16;;;;;;;46.78;10.98;;;13.60;99.90;;;;;;5054139;28;20542;-60
2021/03/30 11:04:42;;;;;;;37.75;10.25;;;13.70;99.90;;;;;;5072382;28;20123;-60
2021/03/30 11:07:10;;;;;;;35.53;9.07;;;13.60;99.90;;;;;;5052093;28;20041;-61
2021/03/30 11:09:37;;;;;;;31.73;9.48;;;13.70;99.90;;;;;;5072849;28;20028;-61
2021/03/30 11:12:04;;;;;;;35.38;9.02;;;13.80;99.90;;;;;;5073294;28;20032;-60
2021/03/30 11:14:31;;;;;;;38.97;9.18;;;13.80;99.90;;;;;;5071529;28;21770;-60
2021/03/30 11:16:58;;;;;;;42.92;10.10;;;13.80;99.90;;;;;;5072292;28;20074;-61
2021/03/30 11:19:26;;;;;;;40.88;10.15;;;13.90;99.90;;;;;;5071921;28;20025;-60
2021/03/30 11:21:53;;;;;;;43.35;9.98;;;13.90;99.90;;;;;;5072747;28;20087;-60
2021/03/30 11:24:22;;;;;;;45.10;11.18;;;13.90;99.90;;;;;;5072323;28;20432;-60
2021/03/30 11:26:51;;;;;;;35.85;9.18;;;14.00;99.90;;;;;;5059815;28;20032;-60
2021/03/30 11:34:35;;;;;;;33.38;8.85;;;13.70;99.90;;;;;;5051646;28;20130;-61
2021/03/30 11:37:13;;;;;;;38.08;10.80;;;13.80;99.90;;;;;;5051948;28;21001;-61
2021/03/30 11:39:40;;;;;;;32.20;8.03;;;13.80;99.90;;;;;;5052120;28;20102;-61
2021/03/30 11:42:07;;;;;;;44.08;10.20;;;13.80;99.90;;;;;;5052117;28;20456;-61
2021/03/30 11:44:34;;;;;;;38.65;10.05;;;13.70;99.90;;;;;;5051580;28;20032;-61
2021/03/30 11:47:01;;;;;;;40.25;9.88;;;13.80;99.90;;;;;;5051290;28;20060;-59
2021/03/30 11:49:29;;;;;;;46.60;12.40;;;13.80;99.90;;;;;;5052681;28;20032;-60
2021/03/30 11:51:57;;;;;;;42.23;10.17;;;13.50;99.90;;;;;;5052049;28;20021;-60
2021/03/30 11:54:24;;;;;;;36.40;10.65;;;13.60;99.90;;;;;;5049443;28;20549;-60
2021/03/30 11:56:51;;;;;;;50.90;11.63;;;13.60;99.90;;;;;;5051789;28;20090;-60
2021/03/30 11:59:18;;;;;;;48.00;9.82;;;13.60;99.90;;;;;;5051535;28;20029;-60
2021/03/30 12:01:44;;;;;;;42.55;10.65;;;13.60;99.90;;;;;;5052613;28;20043;-59
2021/03/30 12:04:11;;;;;;;37.85;9.32;;;13.70;99.90;;;;;;5050673;28;20033;-60
2021/03/30 12:06:38;;;;;;;40.28;9.98;;;13.60;99.90;;;;;;5056213;28;20032;-59
2021/03/30 12:09:05;;;;;;;33.20;9.30;;;13.70;99.90;;;;;;5052726;28;20358;-59
2021/03/30 12:11:32;;;;;;;35.25;10.02;;;13.60;99.90;;;;;;5050285;28;20180;-60
2021/03/30 12:14:00;;;;;;;35.30;9.25;;;13.60;99.90;;;;;;5051827;28;20020;-59
2021/03/30 12:16:27;;;;;;;37.33;8.93;;;13.70;99.90;;;;;;5052477;28;20029;-59
2021/03/30 12:18:54;;;;;;;44.97;10.75;;;13.80;99.90;;;;;;5052417;28;20024;-60
2021/03/30 12:21:21;;;;;;;40.63;11.15;;;13.60;99.90;;;;;;5050743;28;20089;-61
2021/03/30 12:23:48;;;;;;;42.80;10.50;;;13.70;99.90;;;;;;5049350;28;20036;-61
2021/03/30 12:26:15;;;;;;;38.95;9.60;;;13.70;99.90;;;;;;5051490;28;20033;-60
2021/03/30 12:28:42;;;;;;;39.78;9.02;;;13.80;99.90;;;;;;5055268;28;20040;-61
2021/03/30 12:31:08;;;;;;;48.95;10.55;;;13.90;99.90;;;;;;5070539;28;20024;-60
2021/03/30 12:33:35;;;;;;;42.28;9.90;;;13.90;99.90;;;;;;5051187;28;20028;-60
2021/03/30 12:36:01;;;;;;;42.40;11.63;;;13.90;99.90;;;;;;5072332;28;20044;-60
2021/03/30 12:38:28;;;;;;;39.92;11.00;;;13.90;99.90;;;;;;5072476;28;20028;-61
2021/03/30 12:40:54;;;;;;;46.20;12.10;;;13.90;99.90;;;;;;5075336;28;20081;-61
2021/03/30 12:43:21;;;;;;;45.08;12.98;;;13.80;99.90;;;;;;5074074;28;20028;-60
2021/03/30 12:45:47;;;;;;;40.28;12.20;;;13.60;99.90;;;;;;5076278;28;20028;-60
2021/03/30 12:48:14;;;;;;;44.97;11.52;;;13.60;99.90;;;;;;5075992;28;20028;-60
2021/03/30 12:50:41;;;;;;;36.47;12.75;;;13.70;99.90;;;;;;5071644;28;20125;-60
2021/03/30 12:53:08;;;;;;;41.47;12.15;;;13.60;99.90;;;;;;5073924;28;20024;-61
2021/03/30 12:55:34;;;;;;;39.67;12.43;;;13.70;99.90;;;;;;5074273;28;20174;-60
2021/03/30 12:58:01;;;;;;;41.38;12.23;;;13.60;99.90;;;;;;5056801;28;20463;-61
2021/03/30 13:00:28;;;;;;;47.80;13.38;;;13.50;99.90;;;;;;5075017;28;20028;-61
2021/03/30 13:02:54;;;;;;;47.53;14.93;;;13.40;99.90;;;;;;5073867;28;20491;-59